Terminal Aerodrome Forecast
Issued by NWS

Home | Current Version | Previous Version | Text Only | Print | Product List | Glossary On
Versions: 1 2 3 4 5 6 7 8 9 10 11 12 13 14 15 16 17 18 19 20 21 22 23 24 25 26 27 28 29 30 31 32
000
FTUS45 KGJT 310538
TAFASE
TAF
KASE 310538Z 3106/0106 18003KT P6SM VCSH SCT001 OVC040
      TEMPO 3106/3108 3SM -SN BR SCT001 BKN025
     FM310800 18003KT 3SM -SN BR SCT001 OVC025
     FM311500 00000KT 1SM -SN BR OVC010
     FM311800 32005KT 1/2SM SN FG OVC005
     FM312100 35005KT 5SM -SN BR SCT005 BKN015
     FM010300 23006KT P6SM VCSH SCT025 BKN035=

USA.gov is the U.S. government's official web portal to all federal, state and local government web resources and services.